Time;durP1;ratioP1;P1;durP2;ratioP2;P2;SDS_P1;SDS_P2;PMS_P1;PMS_P2;Temp;Humidity;BMP_temperature;BMP_pressure;BME280_temperature;BME280_humidity;BME280_pressure;Samples;Min_cycle;Max_cycle;Signal;HPM_P1;HPM_P2
2023/09/27 00:00:17;;;;;;;22.50;15.15;;;16.50;99.90;;;;;;5088386;28;20023;-66
2023/09/27 00:02:43;;;;;;;20.75;14.35;;;16.40;99.90;;;;;;5077641;28;20078;-66
2023/09/27 00:05:10;;;;;;;19.75;14.45;;;16.50;99.90;;;;;;5089662;28;20373;-66
2023/09/27 00:07:40;;;;;;;22.75;15.98;;;16.40;99.90;;;;;;5083010;28;20410;-66
2023/09/27 00:10:09;;;;;;;21.58;15.02;;;16.40;99.90;;;;;;5081659;28;20036;-65
2023/09/27 00:12:35;;;;;;;20.02;14.48;;;16.40;99.90;;;;;;5090544;28;20099;-64
2023/09/27 00:15:02;;;;;;;22.85;14.88;;;16.40;99.90;;;;;;5061000;28;20444;-66
2023/09/27 00:17:28;;;;;;;23.38;15.35;;;16.40;99.90;;;;;;5079170;28;20115;-66
2023/09/27 00:19:54;;;;;;;20.92;14.82;;;16.30;99.90;;;;;;5073877;28;20099;-66
2023/09/27 00:22:19;;;;;;;23.55;15.88;;;16.30;99.90;;;;;;5066659;28;20056;-66
2023/09/27 00:24:45;;;;;;;21.98;14.75;;;16.40;99.90;;;;;;5053756;28;20066;-66
2023/09/27 00:27:11;;;;;;;22.45;15.25;;;16.30;99.90;;;;;;5053783;28;20107;-66
2023/09/27 00:29:36;;;;;;;20.35;15.35;;;16.30;99.90;;;;;;5054019;28;20025;-66
2023/09/27 00:32:02;;;;;;;22.15;16.27;;;16.30;99.90;;;;;;5053503;28;20392;-66
2023/09/27 00:34:28;;;;;;;22.63;15.07;;;16.30;99.90;;;;;;5053603;28;20029;-65
2023/09/27 00:36:53;;;;;;;21.85;15.52;;;16.20;99.90;;;;;;5053396;28;20036;-65
2023/09/27 00:39:19;;;;;;;22.48;16.30;;;16.20;99.90;;;;;;5060701;28;20032;-65
2023/09/27 00:41:44;;;;;;;23.13;15.57;;;16.10;99.90;;;;;;5073428;28;20021;-66
2023/09/27 00:44:10;;;;;;;23.73;15.70;;;16.10;99.90;;;;;;5073235;28;20031;-67
2023/09/27 00:46:36;;;;;;;22.70;16.00;;;16.00;99.90;;;;;;5073607;28;20024;-66
2023/09/27 00:49:04;;;;;;;22.63;15.43;;;16.00;99.90;;;;;;5073388;28;20435;-66
2023/09/27 00:51:29;;;;;;;22.95;16.52;;;16.00;99.90;;;;;;5073380;28;20053;-66
2023/09/27 00:53:56;;;;;;;24.25;16.17;;;15.90;99.90;;;;;;5073212;28;20031;-66
2023/09/27 00:56:23;;;;;;;20.98;16.58;;;15.90;99.90;;;;;;5068299;28;20472;-66
2023/09/27 00:58:49;;;;;;;21.52;15.60;;;15.90;99.90;;;;;;5073051;28;20028;-66
2023/09/27 01:01:15;;;;;;;24.48;16.48;;;15.90;99.90;;;;;;5073223;28;20036;-66
2023/09/27 01:03:41;;;;;;;22.67;16.85;;;15.80;99.90;;;;;;5072703;28;20064;-66
2023/09/27 01:06:08;;;;;;;23.15;17.20;;;15.80;99.90;;;;;;5073147;28;20063;-65
2023/09/27 01:08:34;;;;;;;23.33;17.42;;;15.70;99.90;;;;;;5072827;28;20028;-66
2023/09/27 01:11:00;;;;;;;23.73;16.65;;;15.70;99.90;;;;;;5073114;28;20090;-66
2023/09/27 01:13:26;;;;;;;23.67;16.35;;;15.70;99.90;;;;;;5067861;28;20029;-66
2023/09/27 01:15:51;;;;;;;23.80;16.50;;;15.70;99.90;;;;;;5073012;28;20062;-66
2023/09/27 01:18:17;;;;;;;23.30;16.48;;;15.80;99.90;;;;;;5071615;28;20032;-66
2023/09/27 01:20:42;;;;;;;24.33;16.08;;;15.80;99.90;;;;;;5072695;28;20025;-66
2023/09/27 01:23:08;;;;;;;22.65;18.00;;;15.70;99.90;;;;;;5072537;28;20024;-66
2023/09/27 01:25:36;;;;;;;22.65;17.20;;;15.70;99.90;;;;;;5072543;28;20476;-66
2023/09/27 01:28:07;;;;;;;25.67;18.25;;;15.70;99.90;;;;;;5072884;28;20488;-66
2023/09/27 01:30:33;;;;;;;25.15;18.05;;;15.70;99.90;;;;;;5072878;28;20041;-65
2023/09/27 01:33:06;;;;;;;24.90;17.25;;;15.70;99.90;;;;;;5073955;28;20381;-65
2023/09/27 01:35:37;;;;;;;23.70;17.52;;;15.70;99.90;;;;;;5072903;28;20081;-66
2023/09/27 01:38:03;;;;;;;25.35;17.80;;;15.70;99.90;;;;;;5072488;28;20040;-66
2023/09/27 01:40:32;;;;;;;22.23;17.00;;;15.60;99.90;;;;;;5072610;28;20483;-66
2023/09/27 01:43:02;;;;;;;25.33;17.77;;;15.60;99.90;;;;;;5072698;28;20032;-66
2023/09/27 01:45:29;;;;;;;23.95;17.15;;;15.60;99.90;;;;;;5072714;28;20040;-66
2023/09/27 01:47:55;;;;;;;22.83;17.50;;;15.60;99.90;;;;;;5072304;28;20051;-66
2023/09/27 01:50:24;;;;;;;25.52;17.98;;;15.60;99.90;;;;;;5071932;28;20049;-66
2023/09/27 01:52:55;;;;;;;25.73;18.73;;;15.60;99.90;;;;;;5072466;28;20479;-66
2023/09/27 01:55:22;;;;;;;27.60;18.33;;;15.60;99.90;;;;;;5072698;28;20020;-65
2023/09/27 01:57:48;;;;;;;25.45;19.40;;;15.60;99.90;;;;;;5072497;28;20090;-66
2023/09/27 02:00:15;;;;;;;23.52;18.05;;;15.60;99.90;;;;;;5067909;28;20427;-66
2023/09/27 02:02:58;;;;;;;22.58;16.92;;;15.60;99.90;;;;;;5063662;28;20078;-66
2023/09/27 02:05:25;;;;;;;24.27;17.52;;;15.60;99.90;;;;;;5052355;28;20055;-66
2023/09/27 02:07:51;;;;;;;23.73;17.50;;;15.60;99.90;;;;;;5064198;28;20065;-66
2023/09/27 02:10:17;;;;;;;23.90;17.05;;;15.50;99.90;;;;;;5052077;28;20065;-66
2023/09/27 02:12:43;;;;;;;27.75;18.17;;;15.50;99.90;;;;;;5052448;28;20024;-66
2023/09/27 02:15:10;;;;;;;22.67;17.08;;;15.50;99.90;;;;;;5054288;28;20094;-66
2023/09/27 02:17:38;;;;;;;26.65;18.58;;;15.40;99.90;;;;;;5056429;28;20032;-66
2023/09/27 02:20:06;;;;;;;22.30;16.17;;;15.40;99.90;;;;;;5056140;28;20094;-66
2023/09/27 02:22:32;;;;;;;24.48;16.30;;;15.40;99.90;;;;;;5056212;28;20040;-67
2023/09/27 02:24:57;;;;;;;28.23;16.77;;;15.50;99.90;;;;;;5056150;28;20032;-67
2023/09/27 02:27:23;;;;;;;25.75;16.08;;;15.50;99.90;;;;;;5055824;28;20045;-66
2023/09/27 02:29:49;;;;;;;25.90;16.73;;;15.40;99.90;;;;;;5055946;28;20095;-67
2023/09/27 02:32:15;;;;;;;24.85;15.77;;;15.40;99.90;;;;;;5074102;28;20047;-66
2023/09/27 02:34:42;;;;;;;24.52;16.63;;;15.50;99.90;;;;;;5076049;28;20040;-66
2023/09/27 02:37:07;;;;;;;23.42;15.98;;;15.50;99.90;;;;;;5075926;28;20024;-66
2023/09/27 02:39:33;;;;;;;22.90;13.95;;;15.50;99.90;;;;;;5075842;28;20380;-66
2023/09/27 02:41:59;;;;;;;24.33;15.82;;;15.50;99.90;;;;;;5076059;28;20036;-65
2023/09/27 02:44:25;;;;;;;24.25;15.13;;;15.50;99.90;;;;;;5075630;28;20125;-67
2023/09/27 02:46:57;;;;;;;22.48;14.75;;;15.40;99.90;;;;;;5075444;28;20472;-66
2023/09/27 02:49:23;;;;;;;;;;;15.40;99.90;;;;;;5075720;28;20380;-66
2023/09/27 02:51:51;;;;;;;22.98;14.35;;;15.50;99.90;;;;;;5075645;28;19923;-66
2023/09/27 02:54:18;;;;;;;26.30;15.95;;;15.40;99.90;;;;;;5075664;28;20380;-66
2023/09/27 02:56:44;;;;;;;23.85;14.98;;;15.50;99.90;;;;;;5075529;28;20024;-66
2023/09/27 02:59:13;;;;;;;25.30;15.73;;;15.50;99.90;;;;;;5075000;28;20476;-66
2023/09/27 03:01:40;;;;;;;25.33;15.90;;;15.50;99.90;;;;;;5075437;28;20028;-67
2023/09/27 03:04:07;;;;;;;24.48;15.25;;;15.50;99.90;;;;;;5075514;28;20116;-66
2023/09/27 03:06:35;;;;;;;26.58;14.93;;;15.50;99.90;;;;;;5075408;28;20032;-66
2023/09/27 03:09:00;;;;;;;21.00;13.50;;;15.50;99.90;;;;;;5075363;28;20070;-66
2023/09/27 03:11:26;;;;;;;25.05;16.30;;;15.60;99.90;;;;;;5075235;28;20037;-66
2023/09/27 03:13:52;;;;;;;26.65;16.33;;;15.50;99.90;;;;;;5075214;28;20032;-66
2023/09/27 03:16:17;;;;;;;27.15;16.00;;;15.50;99.90;;;;;;5075324;28;20108;-66
2023/09/27 03:18:43;;;;;;;25.52;16.35;;;15.50;99.90;;;;;;5070494;28;20048;-66
2023/09/27 03:21:08;;;;;;;26.13;16.23;;;15.50;99.90;;;;;;5063144;28;20033;-66
2023/09/27 03:23:34;;;;;;;27.77;18.02;;;15.60;99.90;;;;;;5055070;28;20111;-66
2023/09/27 03:25:59;;;;;;;30.95;19.77;;;15.50;99.90;;;;;;5082008;28;20032;-66
2023/09/27 03:28:25;;;;;;;29.50;17.33;;;15.50;99.90;;;;;;5085159;28;20029;-67
2023/09/27 03:30:50;;;;;;;29.38;16.50;;;15.60;99.90;;;;;;5074780;28;20036;-67
2023/09/27 03:33:16;;;;;;;29.35;18.40;;;15.50;99.90;;;;;;5074913;28;20032;-67
2023/09/27 03:35:42;;;;;;;28.23;17.75;;;15.50;99.90;;;;;;5073614;28;20032;-67
2023/09/27 03:38:08;;;;;;;28.13;18.55;;;15.50;99.90;;;;;;5074664;28;20366;-66
2023/09/27 03:40:33;;;;;;;29.13;18.00;;;15.50;99.90;;;;;;5074777;28;20043;-65
2023/09/27 03:42:59;;;;;;;29.00;18.42;;;15.50;99.90;;;;;;5074683;28;20029;-65
2023/09/27 03:45:25;;;;;;;28.17;20.35;;;15.50;99.90;;;;;;5074740;28;20361;-65
2023/09/27 03:47:51;;;;;;;29.58;19.70;;;15.50;99.90;;;;;;5074533;28;20517;-66
2023/09/27 03:50:17;;;;;;;32.63;21.55;;;15.50;99.90;;;;;;5074276;28;20048;-66
2023/09/27 03:52:43;;;;;;;37.75;22.30;;;15.50;99.90;;;;;;5069543;28;20036;-67
2023/09/27 03:55:09;;;;;;;31.48;21.40;;;15.50;99.90;;;;;;5074244;28;20352;-66
2023/09/27 03:57:35;;;;;;;34.83;21.98;;;15.50;99.90;;;;;;5074108;28;20031;-65
2023/09/27 04:00:01;;;;;;;31.73;20.85;;;15.60;99.90;;;;;;5074332;28;20032;-66
2023/09/27 04:02:27;;;;;;;31.15;21.10;;;15.60;99.90;;;;;;5072740;28;20020;-66
2023/09/27 04:04:53;;;;;;;30.08;21.90;;;15.60;99.90;;;;;;5074105;28;20124;-66
2023/09/27 04:07:19;;;;;;;33.15;22.27;;;15.60;99.90;;;;;;5074172;28;20017;-66
2023/09/27 04:09:47;;;;;;;35.15;23.20;;;15.60;99.90;;;;;;5073965;28;20111;-66
2023/09/27 04:12:12;;;;;;;40.15;24.05;;;15.60;99.90;;;;;;5073938;28;20033;-67
2023/09/27 04:14:39;;;;;;;37.67;23.52;;;15.60;99.90;;;;;;5074185;28;20021;-66
2023/09/27 04:17:04;;;;;;;35.08;22.20;;;15.60;99.90;;;;;;5074058;28;20036;-66
2023/09/27 04:19:31;;;;;;;32.97;21.67;;;15.60;99.90;;;;;;5073756;28;20057;-66
2023/09/27 04:21:57;;;;;;;34.25;21.77;;;15.70;99.90;;;;;;5073845;28;20453;-67
2023/09/27 04:24:23;;;;;;;34.08;22.88;;;15.70;99.90;;;;;;5073856;28;20032;-66
2023/09/27 04:26:49;;;;;;;39.47;22.80;;;15.70;99.90;;;;;;5073882;28;20465;-66
2023/09/27 04:29:15;;;;;;;33.95;23.00;;;15.70;99.90;;;;;;5073511;28;20460;-66
2023/09/27 04:31:40;;;;;;;32.20;20.45;;;15.80;99.90;;;;;;5073454;28;20037;-67
2023/09/27 04:34:06;;;;;;;30.55;20.60;;;15.70;99.90;;;;;;5073427;28;20040;-67
2023/09/27 04:36:31;;;;;;;32.50;20.85;;;15.70;99.90;;;;;;5073039;28;20024;-66
2023/09/27 04:38:57;;;;;;;35.65;21.42;;;15.70;99.90;;;;;;5073107;28;20024;-66
2023/09/27 04:41:22;;;;;;;30.50;19.73;;;15.70;99.90;;;;;;5073453;28;20036;-66
2023/09/27 04:43:48;;;;;;;32.05;20.52;;;15.70;99.90;;;;;;5073282;28;20032;-65
2023/09/27 04:46:16;;;;;;;32.33;20.50;;;15.70;99.90;;;;;;5073369;28;20024;-67
2023/09/27 04:48:42;;;;;;;28.60;18.35;;;15.60;99.90;;;;;;5073221;28;20040;-67
2023/09/27 04:51:08;;;;;;;31.58;21.13;;;15.60;99.90;;;;;;5073313;28;20055;-67
2023/09/27 04:53:37;;;;;;;37.38;22.88;;;15.50;99.90;;;;;;5072964;28;20021;-65
2023/09/27 04:56:06;;;;;;;37.92;22.88;;;15.50;99.90;;;;;;5073254;28;20028;-64
2023/09/27 04:58:32;;;;;;;40.38;25.48;;;15.50;99.90;;;;;;5072920;28;20032;-66
2023/09/27 05:00:58;;;;;;;39.50;23.98;;;15.40;99.90;;;;;;5074064;28;20028;-66
2023/09/27 05:03:23;;;;;;;42.00;26.52;;;15.40;99.90;;;;;;5071319;28;20465;-67
2023/09/27 05:05:49;;;;;;;42.00;26.70;;;15.40;99.90;;;;;;5072769;28;20415;-66
2023/09/27 05:08:14;;;;;;;45.58;25.98;;;15.40;99.90;;;;;;5072959;28;20036;-68
2023/09/27 05:10:40;;;;;;;37.15;22.40;;;15.30;99.90;;;;;;5072138;28;20120;-67
2023/09/27 05:13:06;;;;;;;37.75;23.50;;;15.30;99.90;;;;;;5072720;28;20048;-66
2023/09/27 05:15:32;;;;;;;36.85;24.60;;;15.30;99.90;;;;;;5072194;28;20067;-66
2023/09/27 05:17:58;;;;;;;34.95;23.98;;;15.20;99.90;;;;;;5072318;28;20033;-67
2023/09/27 05:20:23;;;;;;;38.75;24.55;;;15.20;99.90;;;;;;5072548;28;20365;-67
2023/09/27 05:22:49;;;;;;;38.35;26.90;;;15.10;99.90;;;;;;5072690;28;20074;-66
2023/09/27 05:25:15;;;;;;;35.70;24.98;;;15.10;99.90;;;;;;5072790;28;20074;-66
2023/09/27 05:27:40;;;;;;;34.17;23.80;;;15.00;99.90;;;;;;5071507;28;20112;-66
2023/09/27 05:30:13;;;;;;;37.95;22.63;;;15.00;99.90;;;;;;5071299;28;20025;-65
2023/09/27 05:32:40;;;;;;;37.08;22.90;;;14.90;99.90;;;;;;5072195;28;20035;-65
2023/09/27 05:35:06;;;;;;;38.00;22.67;;;14.90;99.90;;;;;;5072833;28;20078;-66
2023/09/27 05:37:32;;;;;;;35.58;21.65;;;14.90;99.90;;;;;;5071383;28;20024;-66
2023/09/27 05:39:58;;;;;;;41.55;24.95;;;14.90;99.90;;;;;;5072320;28;20109;-66
2023/09/27 05:42:23;;;;;;;39.00;25.10;;;14.90;99.90;;;;;;5072001;28;20407;-66
2023/09/27 05:44:49;;;;;;;40.42;25.63;;;14.90;99.90;;;;;;5071627;28;20043;-66
2023/09/27 05:47:15;;;;;;;38.53;25.67;;;14.90;99.90;;;;;;5071162;28;20020;-66
2023/09/27 05:49:41;;;;;;;39.83;25.42;;;15.00;99.90;;;;;;5071283;28;20044;-66
2023/09/27 05:52:11;;;;;;;38.95;23.95;;;15.00;99.90;;;;;;5065641;28;20493;-67
2023/09/27 05:54:38;;;;;;;40.30;23.92;;;15.10;99.90;;;;;;5073911;28;20112;-67
2023/09/27 05:57:06;;;;;;;32.80;20.70;;;15.10;99.90;;;;;;5074756;28;20032;-67
2023/09/27 05:59:32;;;;;;;35.75;21.73;;;15.10;99.90;;;;;;5073855;28;20032;-67
2023/09/27 06:01:58;;;;;;;32.83;21.58;;;15.10;99.90;;;;;;5076692;28;20040;-67
2023/09/27 06:04:24;;;;;;;31.75;19.48;;;15.10;99.90;;;;;;5077048;28;20028;-67
2023/09/27 06:06:50;;;;;;;29.55;19.83;;;15.20;99.90;;;;;;5071752;28;20028;-67
2023/09/27 06:09:16;;;;;;;35.05;21.67;;;15.20;99.90;;;;;;5069574;28;20129;-67
2023/09/27 06:11:42;;;;;;;34.40;20.70;;;15.20;99.90;;;;;;5072194;28;20065;-67
2023/09/27 06:14:11;;;;;;;36.38;21.70;;;15.30;99.90;;;;;;5069491;28;20070;-67
2023/09/27 06:16:39;;;;;;;33.92;23.38;;;15.30;99.90;;;;;;5069936;28;20033;-67
2023/09/27 06:19:05;;;;;;;36.05;22.23;;;15.40;99.90;;;;;;5072337;28;20029;-67
2023/09/27 06:21:33;;;;;;;33.90;22.80;;;15.50;99.90;;;;;;5074303;28;20020;-67
2023/09/27 06:23:59;;;;;;;36.95;22.65;;;15.50;99.90;;;;;;5069585;28;20040;-67
2023/09/27 06:26:24;;;;;;;31.75;22.70;;;15.60;99.90;;;;;;5067355;28;20040;-67
2023/09/27 06:28:50;;;;;;;34.55;23.10;;;15.70;99.90;;;;;;5064342;28;20492;-66
2023/09/27 06:31:15;;;;;;;37.83;23.70;;;15.80;99.90;;;;;;5070854;28;20032;-68
2023/09/27 06:33:43;;;;;;;38.00;24.63;;;15.90;99.90;;;;;;5071176;28;20036;-66
2023/09/27 06:36:10;;;;;;;41.70;24.80;;;16.00;99.90;;;;;;5071795;28;20405;-66
2023/09/27 06:38:36;;;;;;;42.35;24.38;;;16.10;99.90;;;;;;5073314;28;20031;-66
2023/09/27 06:41:02;;;;;;;34.00;21.85;;;16.20;99.90;;;;;;5079751;28;20109;-67
2023/09/27 06:43:29;;;;;;;30.73;21.13;;;16.20;99.90;;;;;;5072459;28;20471;-67
2023/09/27 06:45:55;;;;;;;33.65;21.92;;;16.30;99.90;;;;;;5072818;28;20371;-67
2023/09/27 06:48:23;;;;;;;35.20;21.73;;;16.40;99.90;;;;;;5072633;28;20032;-66
2023/09/27 06:50:48;;;;;;;37.22;22.08;;;16.50;99.90;;;;;;5073812;28;20131;-65
2023/09/27 06:53:16;;;;;;;34.22;20.45;;;16.50;99.90;;;;;;5069052;28;20242;-66
2023/09/27 06:55:44;;;;;;;31.15;20.42;;;16.60;99.90;;;;;;5074997;28;20496;-66
2023/09/27 06:58:11;;;;;;;34.50;22.38;;;16.80;99.90;;;;;;5074236;28;20055;-66
2023/09/27 07:00:40;;;;;;;35.90;23.13;;;16.90;99.90;;;;;;5074763;28;20089;-66
2023/09/27 07:03:06;;;;;;;41.80;24.63;;;17.00;99.90;;;;;;5077544;28;20488;-66
2023/09/27 07:05:33;;;;;;;41.05;25.40;;;17.10;99.90;;;;;;5074535;28;20381;-66
2023/09/27 07:07:59;;;;;;;37.70;23.75;;;17.20;99.90;;;;;;5072797;28;20037;-66
2023/09/27 07:10:24;;;;;;;34.58;23.98;;;17.20;99.90;;;;;;5074163;28;20067;-66
2023/09/27 07:12:50;;;;;;;40.42;26.10;;;17.30;99.90;;;;;;5073521;28;20032;-66
2023/09/27 07:15:15;;;;;;;33.22;23.33;;;17.40;99.90;;;;;;5071886;28;20404;-66
2023/09/27 07:17:43;;;;;;;35.88;23.75;;;17.50;99.90;;;;;;5070107;28;20020;-66
2023/09/27 07:20:32;;;;;;;31.42;23.27;;;17.50;99.90;;;;;;5075188;28;20453;-66
2023/09/27 07:22:59;;;;;;;34.47;21.95;;;17.60;99.90;;;;;;5074128;28;20076;-65
2023/09/27 07:25:26;;;;;;;29.42;21.40;;;17.60;99.90;;;;;;5075360;28;20108;-66
2023/09/27 07:27:52;;;;;;;31.92;22.10;;;17.60;99.90;;;;;;5072870;28;20020;-65
2023/09/27 07:30:20;;;;;;;31.42;20.38;;;17.80;99.90;;;;;;5074115;28;20369;-65
2023/09/27 07:32:46;;;;;;;32.50;21.10;;;17.90;99.90;;;;;;5071976;28;20033;-65
2023/09/27 07:35:14;;;;;;;28.35;20.10;;;17.90;99.90;;;;;;5075680;28;20464;-65
2023/09/27 07:37:40;;;;;;;28.95;18.42;;;18.00;99.90;;;;;;5078535;28;20464;-65
2023/09/27 07:40:09;;;;;;;34.08;19.65;;;18.20;99.90;;;;;;5089245;28;20024;-67
2023/09/27 07:42:36;;;;;;;30.35;20.58;;;18.30;99.90;;;;;;5075838;28;20036;-67
2023/09/27 07:45:02;;;;;;;29.40;18.45;;;18.50;99.90;;;;;;5078942;28;20020;-65
2023/09/27 07:47:27;;;;;;;27.38;19.48;;;18.70;99.90;;;;;;5087494;28;20387;-67
2023/09/27 07:49:54;;;;;;;31.42;19.73;;;18.80;99.90;;;;;;5064355;28;20052;-65
2023/09/27 07:52:19;;;;;;;27.65;17.85;;;19.00;99.90;;;;;;5076527;28;20079;-66
2023/09/27 07:54:45;;;;;;;27.30;16.73;;;19.20;99.90;;;;;;5079852;28;20049;-68
2023/09/27 07:57:11;;;;;;;25.92;17.02;;;19.50;99.90;;;;;;5074942;28;20040;-67
2023/09/27 07:59:37;;;;;;;24.70;16.08;;;19.70;99.90;;;;;;5075716;28;20037;-67
2023/09/27 08:02:02;;;;;;;25.42;16.50;;;19.90;99.90;;;;;;5083732;28;20028;-66
2023/09/27 08:04:28;;;;;;;22.35;15.85;;;20.00;99.90;;;;;;5084765;28;20384;-65
2023/09/27 08:06:54;;;;;;;25.60;15.27;;;20.10;99.90;;;;;;5092905;28;20082;-65
2023/09/27 08:09:22;;;;;;;23.17;15.35;;;20.30;99.90;;;;;;5085447;28;20024;-67
2023/09/27 08:11:48;;;;;;;23.65;13.57;;;20.40;99.90;;;;;;5091428;28;20032;-67
2023/09/27 08:14:16;;;;;;;26.55;14.45;;;20.60;99.90;;;;;;5080045;28;20056;-67
2023/09/27 08:16:42;;;;;;;22.17;14.20;;;20.70;99.90;;;;;;5061571;28;20037;-66
2023/09/27 08:19:08;;;;;;;22.98;13.50;;;20.90;99.90;;;;;;5078650;28;20038;-67
2023/09/27 08:21:34;;;;;;;22.67;13.68;;;21.00;99.90;;;;;;5088657;28;20099;-66
2023/09/27 08:23:59;;;;;;;23.83;13.98;;;21.10;99.90;;;;;;5080810;28;20116;-65
2023/09/27 08:26:26;;;;;;;25.13;13.77;;;21.00;99.90;;;;;;5076614;28;20483;-67
2023/09/27 08:28:51;;;;;;;21.58;12.80;;;20.80;99.90;;;;;;5079225;28;20647;-67
2023/09/27 08:31:17;;;;;;;25.35;15.18;;;20.70;99.90;;;;;;5081196;28;20134;-66
2023/09/27 08:33:43;;;;;;;29.13;14.32;;;20.60;99.90;;;;;;5088115;28;20031;-66
2023/09/27 08:36:09;;;;;;;24.33;15.35;;;20.50;99.90;;;;;;5093544;28;20048;-65
2023/09/27 08:38:35;;;;;;;23.55;16.13;;;20.40;99.90;;;;;;5087428;28;20039;-66
2023/09/27 08:41:00;;;;;;;25.98;15.13;;;20.30;99.90;;;;;;5088721;28;20032;-67
2023/09/27 08:43:29;;;;;;;25.77;14.88;;;20.30;99.90;;;;;;5089392;28;20460;-66
2023/09/27 08:45:55;;;;;;;25.60;14.60;;;20.20;99.90;;;;;;5080620;28;20024;-66
2023/09/27 08:48:24;;;;;;;26.65;15.38;;;20.20;99.90;;;;;;5089477;28;20068;-66
2023/09/27 08:50:50;;;;;;;25.15;15.35;;;20.20;99.90;;;;;;5066423;28;20056;-66
2023/09/27 08:53:16;;;;;;;24.75;15.88;;;20.30;99.90;;;;;;5070380;28;20120;-65
2023/09/27 08:55:51;;;;;;;24.60;15.85;;;20.30;99.90;;;;;;5079221;28;20102;-65
2023/09/27 08:58:18;;;;;;;24.40;16.02;;;20.50;99.90;;;;;;5081909;28;20108;-65
2023/09/27 09:00:44;;;;;;;26.25;15.10;;;20.70;99.90;;;;;;5085118;28;20036;-66
2023/09/27 09:03:10;;;;;;;23.60;15.55;;;20.80;99.90;;;;;;5079299;28;20020;-66
2023/09/27 09:05:37;;;;;;;24.20;15.05;;;20.90;99.90;;;;;;5078408;28;20062;-65
2023/09/27 09:08:04;;;;;;;24.70;16.08;;;21.00;99.90;;;;;;5075757;28;20085;-65
2023/09/27 09:10:30;;;;;;;28.05;14.32;;;21.00;99.90;;;;;;5072322;28;20442;-66
2023/09/27 09:12:55;;;;;;;27.40;14.68;;;21.00;99.90;;;;;;5088691;28;20440;-66
2023/09/27 09:15:30;;;;;;;20.10;13.55;;;21.10;99.90;;;;;;5076244;28;20031;-65
2023/09/27 09:18:00;;;;;;;24.00;14.75;;;21.00;99.90;;;;;;5086222;28;20065;-65
2023/09/27 09:20:32;;;;;;;26.13;15.23;;;20.90;99.90;;;;;;5081745;28;20047;-64
2023/09/27 09:23:03;;;;;;;25.65;15.57;;;20.90;99.90;;;;;;5072272;28;20110;-65
2023/09/27 09:25:29;;;;;;;24.13;15.18;;;21.00;99.90;;;;;;5081465;28;20027;-65
2023/09/27 09:28:07;;;;;;;23.35;17.27;;;21.00;99.90;;;;;;5070787;28;20523;-65
2023/09/27 09:30:35;;;;;;;25.42;15.38;;;21.30;99.90;;;;;;5072494;28;20074;-65
2023/09/27 09:33:01;;;;;;;26.85;15.57;;;21.50;99.90;;;;;;5088150;28;20076;-65
2023/09/27 09:35:31;;;;;;;25.05;15.63;;;21.80;99.90;;;;;;5076227;28;20469;-65
2023/09/27 09:37:58;;;;;;;21.95;15.70;;;22.00;99.90;;;;;;5084229;28;20582;-65
2023/09/27 09:40:24;;;;;;;22.80;14.98;;;22.30;99.90;;;;;;5075475;28;20035;-66
2023/09/27 09:42:50;;;;;;;23.70;14.98;;;22.70;99.90;;;;;;5086918;28;20433;-65
2023/09/27 09:45:16;;;;;;;26.15;15.27;;;23.00;99.90;;;;;;5074198;28;20024;-66
2023/09/27 09:47:44;;;;;;;23.77;15.13;;;23.30;99.90;;;;;;5073399;28;20025;-65
2023/09/27 09:50:16;;;;;;;23.08;15.10;;;23.60;99.90;;;;;;5073941;28;20117;-66
2023/09/27 09:53:05;;;;;;;24.27;15.25;;;23.80;99.90;;;;;;5071774;28;20028;-66
2023/09/27 09:55:34;;;;;;;23.13;14.48;;;24.30;99.90;;;;;;5065990;28;20055;-66
2023/09/27 09:58:32;;;;;;;24.83;15.25;;;24.80;99.90;;;;;;5068943;28;20040;-66
2023/09/27 10:01:01;;;;;;;20.85;14.27;;;25.30;99.90;;;;;;5046827;28;20036;-65
2023/09/27 10:03:33;;;;;;;21.80;14.77;;;25.40;99.90;;;;;;5068962;28;20032;-65
2023/09/27 10:06:01;;;;;;;22.00;14.25;;;25.40;99.90;;;;;;5068965;28;20028;-65
2023/09/27 10:08:33;;;;;;;22.50;14.02;;;25.50;99.90;;;;;;5073126;28;20116;-66
2023/09/27 10:10:59;;;;;;;;;;;25.40;99.90;;;;;;5070696;28;20097;-65
2023/09/27 10:13:26;;;;;;;21.42;13.40;;;25.40;99.90;;;;;;5067122;28;19944;-66
2023/09/27 10:15:52;;;;;;;21.70;13.93;;;25.10;99.90;;;;;;5072594;28;20024;-65
2023/09/27 10:18:21;;;;;;;21.15;14.20;;;24.70;99.90;;;;;;5068080;28;20089;-65
2023/09/27 10:21:02;;;;;;;23.52;14.98;;;24.40;99.90;;;;;;5071357;28;20033;-66
2023/09/27 10:23:46;;;;;;;24.97;15.77;;;24.10;99.90;;;;;;5079990;28;20400;-65
2023/09/27 10:26:28;;;;;;;25.73;15.65;;;24.00;99.90;;;;;;5070740;28;20287;-65
2023/09/27 10:29:08;;;;;;;23.35;13.93;;;24.10;99.90;;;;;;5060169;28;20499;-65
2023/09/27 10:31:36;;;;;;;20.48;13.60;;;24.20;99.90;;;;;;5075616;28;20041;-65
2023/09/27 10:34:02;;;;;;;19.35;12.23;;;24.30;99.90;;;;;;5069870;28;20021;-65
2023/09/27 10:36:30;;;;;;;20.95;12.15;;;24.60;99.90;;;;;;5073972;28;20026;-66
2023/09/27 10:38:55;;;;;;;19.75;11.25;;;25.20;99.90;;;;;;5074169;28;20032;-66
2023/09/27 10:41:33;;;;;;;18.13;10.70;;;26.10;99.90;;;;;;5074329;28;20028;-66
2023/09/27 10:44:02;;;;;;;16.55;9.32;;;27.70;99.90;;;;;;5075055;28;20098;-66
2023/09/27 10:46:40;;;;;;;15.13;8.65;;;29.30;99.90;;;;;;5075916;28;20098;-66
2023/09/27 10:49:06;;;;;;;17.75;8.55;;;30.30;99.20;;;;;;5073628;28;20388;-66
2023/09/27 10:51:31;;;;;;;16.35;8.18;;;30.70;98.30;;;;;;5075342;28;20451;-66
2023/09/27 10:53:57;;;;;;;16.08;7.97;;;30.80;97.80;;;;;;5074917;28;20039;-66
2023/09/27 10:56:23;;;;;;;12.90;7.65;;;30.70;97.40;;;;;;5075606;28;20029;-65
2023/09/27 10:58:49;;;;;;;15.40;7.63;;;30.70;96.70;;;;;;5075786;28;20024;-66
2023/09/27 11:01:22;;;;;;;16.30;7.25;;;30.50;96.90;;;;;;5075669;28;20043;-66
2023/09/27 11:04:01;;;;;;;15.73;6.22;;;30.30;96.70;;;;;;5075455;28;20025;-65
2023/09/27 11:06:28;;;;;;;11.55;5.57;;;30.00;96.80;;;;;;5075111;28;20036;-66
2023/09/27 11:09:12;;;;;;;14.40;5.75;;;29.70;96.90;;;;;;5075422;28;20028;-65
2023/09/27 11:11:43;;;;;;;13.35;6.32;;;29.60;96.80;;;;;;5075377;28;20040;-66
2023/09/27 11:14:09;;;;;;;14.73;6.18;;;29.80;96.90;;;;;;5075504;28;20025;-66
2023/09/27 11:16:35;;;;;;;16.13;6.40;;;30.40;96.60;;;;;;5075378;28;20078;-66
2023/09/27 11:19:02;;;;;;;15.85;7.45;;;31.00;95.90;;;;;;5075160;28;20037;-64
2023/09/27 11:21:29;;;;;;;13.63;6.15;;;31.40;95.70;;;;;;5074816;28;20036;-64
2023/09/27 11:23:56;;;;;;;12.63;6.40;;;31.90;95.20;;;;;;5075164;28;20107;-64
2023/09/27 11:26:26;;;;;;;14.13;6.07;;;32.50;94.70;;;;;;5075158;28;20040;-64
2023/09/27 11:28:59;;;;;;;15.55;6.43;;;33.00;94.40;;;;;;5073234;28;20032;-66
2023/09/27 11:31:27;;;;;;;12.50;5.65;;;33.60;93.40;;;;;;5073284;28;20044;-65
2023/09/27 11:33:53;;;;;;;10.75;5.25;;;34.00;93.10;;;;;;5074817;28;20382;-65
2023/09/27 11:36:18;;;;;;;8.15;5.15;;;34.40;92.60;;;;;;5074858;28;20040;-65
2023/09/27 11:38:50;;;;;;;10.68;5.57;;;34.80;91.90;;;;;;5074402;28;20028;-65
2023/09/27 11:41:19;;;;;;;14.90;5.57;;;34.80;91.70;;;;;;5074856;28;20076;-66
2023/09/27 11:43:45;;;;;;;10.98;6.10;;;34.70;92.00;;;;;;5074408;28;20021;-65
2023/09/27 11:46:11;;;;;;;11.55;6.00;;;34.80;91.60;;;;;;5073875;28;20099;-65
2023/09/27 11:48:39;;;;;;;12.85;6.53;;;34.60;91.40;;;;;;5074577;28;20036;-65
2023/09/27 11:51:04;;;;;;;10.73;6.45;;;34.40;91.60;;;;;;5073964;28;20489;-66
2023/09/27 11:53:30;;;;;;;12.73;6.38;;;34.70;91.30;;;;;;5074484;28;20028;-65
2023/09/27 11:55:56;;;;;;;12.48;6.95;;;34.50;91.20;;;;;;5074325;28;20055;-65
2023/09/27 11:58:25;;;;;;;15.63;6.70;;;34.30;91.10;;;;;;5074435;28;20032;-65
2023/09/27 12:00:51;;;;;;;13.68;7.32;;;34.10;91.30;;;;;;5073946;28;20032;-65
2023/09/27 12:03:17;;;;;;;11.50;6.90;;;33.80;91.30;;;;;;5074186;28;20055;-65
2023/09/27 12:05:42;;;;;;;13.40;7.00;;;34.10;91.70;;;;;;5072172;28;20124;-65
2023/09/27 12:08:08;;;;;;;13.90;7.10;;;34.20;91.00;;;;;;5074156;28;20036;-64
2023/09/27 12:10:34;;;;;;;13.02;6.68;;;34.10;90.80;;;;;;5073924;28;20032;-65
2023/09/27 12:12:59;;;;;;;11.48;6.40;;;33.90;91.30;;;;;;5074347;28;20016;-65
2023/09/27 12:15:25;;;;;;;12.57;6.20;;;33.60;91.30;;;;;;5073992;28;20044;-66
2023/09/27 12:17:50;;;;;;;11.77;6.13;;;33.20;91.70;;;;;;5074176;28;20487;-65
2023/09/27 12:20:17;;;;;;;13.52;6.13;;;32.80;91.70;;;;;;5073889;28;20036;-65
2023/09/27 12:22:43;;;;;;;11.93;6.60;;;32.60;92.00;;;;;;5073897;28;20033;-65
2023/09/27 12:25:08;;;;;;;13.32;6.78;;;32.40;92.30;;;;;;5073848;28;20078;-64
2023/09/27 12:27:34;;;;;;;13.98;7.35;;;32.30;92.60;;;;;;5073659;28;20384;-66